Terminal Aerodrome Forecast
Issued by NWS

Home | Current Version | Previous Version | Graphics & Text | Print | Product List | Glossary On
Versions: 1 2 3 4 5 6 7 8 9 10 11 12 13 14 15 16 17 18 19 20 21 22 23 24 25 26 27 28 29
000
FTUS43 KGRB 251135
TAFRHI
TAF
KRHI 251135Z 2512/2612 09008KT 1 1/2SM BR OVC004
      TEMPO 2512/2514 1/4SM FG VV002
     FM251500 11008G15KT P6SM BKN009
      TEMPO 2515/2517 SCT015
     FM251700 11009G16KT P6SM SCT100 BKN200
     FM260000 11007KT 6SM -SHRA BR BKN035 OVC100
      TEMPO 2601/2605 2SM +TSRA BKN006 OVC015CB
     FM260700 15005KT 1 1/2SM BR BKN004 BKN010=

USA.gov is the U.S. government's official web portal to all federal, state and local government web resources and services.